sensor_id;sensor_type;location;lat;lon;timestamp;temperature;humidity
51801;DHT22;37855;53.204;6.568;2023-03-23T00:00:58;10.50;82.20
51801;DHT22;37855;53.204;6.568;2023-03-23T00:03:24;10.50;82.10
51801;DHT22;37855;53.204;6.568;2023-03-23T00:05:52;10.50;82.10
51801;DHT22;37855;53.204;6.568;2023-03-23T00:08:21;10.50;82.20
51801;DHT22;37855;53.204;6.568;2023-03-23T00:10:50;10.50;82.20
51801;DHT22;37855;53.204;6.568;2023-03-23T00:13:25;10.50;82.20
51801;DHT22;37855;53.204;6.568;2023-03-23T00:15:51;10.60;82.30
51801;DHT22;37855;53.204;6.568;2023-03-23T00:18:21;10.60;82.30
51801;DHT22;37855;53.204;6.568;2023-03-23T00:20:55;10.60;82.30
51801;DHT22;37855;53.204;6.568;2023-03-23T00:23:26;10.70;82.50
51801;DHT22;37855;53.204;6.568;2023-03-23T00:25:54;10.70;82.50
51801;DHT22;37855;53.204;6.568;2023-03-23T00:28:24;10.70;82.60
51801;DHT22;37855;53.204;6.568;2023-03-23T00:31:02;10.70;82.60
51801;DHT22;37855;53.204;6.568;2023-03-23T00:33:32;10.70;82.70
51801;DHT22;37855;53.204;6.568;2023-03-23T00:36:11;10.70;82.70
51801;DHT22;37855;53.204;6.568;2023-03-23T00:38:38;10.70;82.60
51801;DHT22;37855;53.204;6.568;2023-03-23T00:41:05;10.70;82.60
51801;DHT22;37855;53.204;6.568;2023-03-23T00:43:32;10.70;82.60
51801;DHT22;37855;53.204;6.568;2023-03-23T00:46:02;10.70;82.60
51801;DHT22;37855;53.204;6.568;2023-03-23T00:48:37;10.70;82.70
51801;DHT22;37855;53.204;6.568;2023-03-23T00:51:10;10.60;82.70
51801;DHT22;37855;53.204;6.568;2023-03-23T00:53:37;10.60;82.90
51801;DHT22;37855;53.204;6.568;2023-03-23T00:56:03;10.60;82.90
51801;DHT22;37855;53.204;6.568;2023-03-23T00:58:29;10.70;82.90
51801;DHT22;37855;53.204;6.568;2023-03-23T01:00:54;10.70;82.80
51801;DHT22;37855;53.204;6.568;2023-03-23T01:03:22;10.80;82.60
51801;DHT22;37855;53.204;6.568;2023-03-23T01:05:52;10.80;82.50
51801;DHT22;37855;53.204;6.568;2023-03-23T01:08:19;10.80;82.40
51801;DHT22;37855;53.204;6.568;2023-03-23T01:10:45;10.80;81.70
51801;DHT22;37855;53.204;6.568;2023-03-23T01:13:12;10.80;81.50
51801;DHT22;37855;53.204;6.568;2023-03-23T01:15:38;10.70;81.00
51801;DHT22;37855;53.204;6.568;2023-03-23T01:18:04;10.60;80.60
51801;DHT22;37855;53.204;6.568;2023-03-23T01:20:36;10.60;80.60
51801;DHT22;37855;53.204;6.568;2023-03-23T01:23:02;10.60;80.20
51801;DHT22;37855;53.204;6.568;2023-03-23T01:25:30;10.50;80.20
51801;DHT22;37855;53.204;6.568;2023-03-23T01:27:57;10.50;80.20
51801;DHT22;37855;53.204;6.568;2023-03-23T01:30:24;10.50;80.10
51801;DHT22;37855;53.204;6.568;2023-03-23T01:32:51;10.50;80.10
51801;DHT22;37855;53.204;6.568;2023-03-23T01:35:18;10.50;80.20
51801;DHT22;37855;53.204;6.568;2023-03-23T01:37:44;10.50;80.30
51801;DHT22;37855;53.204;6.568;2023-03-23T01:40:14;10.50;80.30
51801;DHT22;37855;53.204;6.568;2023-03-23T01:42:40;10.50;80.40
51801;DHT22;37855;53.204;6.568;2023-03-23T01:48:06;10.50;80.50
51801;DHT22;37855;53.204;6.568;2023-03-23T01:50:38;10.50;80.60
51801;DHT22;37855;53.204;6.568;2023-03-23T01:53:08;10.50;80.70
51801;DHT22;37855;53.204;6.568;2023-03-23T01:55:37;10.50;80.70
51801;DHT22;37855;53.204;6.568;2023-03-23T01:58:04;10.50;80.80
51801;DHT22;37855;53.204;6.568;2023-03-23T02:00:31;10.60;80.90
51801;DHT22;37855;53.204;6.568;2023-03-23T02:02:57;10.60;81.00
51801;DHT22;37855;53.204;6.568;2023-03-23T02:05:40;10.60;81.00
51801;DHT22;37855;53.204;6.568;2023-03-23T02:08:07;10.60;81.10
51801;DHT22;37855;53.204;6.568;2023-03-23T02:10:35;10.60;81.10
51801;DHT22;37855;53.204;6.568;2023-03-23T02:13:03;10.70;81.20
51801;DHT22;37855;53.204;6.568;2023-03-23T02:15:48;10.70;81.20
51801;DHT22;37855;53.204;6.568;2023-03-23T02:21:05;10.70;81.10
51801;DHT22;37855;53.204;6.568;2023-03-23T02:32:12;10.80;80.90
51801;DHT22;37855;53.204;6.568;2023-03-23T02:34:51;10.90;80.50
51801;DHT22;37855;53.204;6.568;2023-03-23T02:37:24;10.90;80.50
51801;DHT22;37855;53.204;6.568;2023-03-23T02:39:57;10.90;80.50
51801;DHT22;37855;53.204;6.568;2023-03-23T02:42:28;10.90;80.50
51801;DHT22;37855;53.204;6.568;2023-03-23T02:45:05;10.90;80.40
51801;DHT22;37855;53.204;6.568;2023-03-23T02:47:33;10.90;80.20
51801;DHT22;37855;53.204;6.568;2023-03-23T02:50:02;10.90;80.20
51801;DHT22;37855;53.204;6.568;2023-03-23T02:52:30;10.90;80.20
51801;DHT22;37855;53.204;6.568;2023-03-23T02:54:58;10.90;80.20
51801;DHT22;37855;53.204;6.568;2023-03-23T02:57:26;10.90;80.10
51801;DHT22;37855;53.204;6.568;2023-03-23T02:59:52;10.90;80.00
51801;DHT22;37855;53.204;6.568;2023-03-23T03:02:24;10.90;80.00
51801;DHT22;37855;53.204;6.568;2023-03-23T03:05:02;10.90;80.00
51801;DHT22;37855;53.204;6.568;2023-03-23T03:07:38;10.90;80.00
51801;DHT22;37855;53.204;6.568;2023-03-23T03:10:19;10.90;79.90
51801;DHT22;37855;53.204;6.568;2023-03-23T03:13:03;10.90;79.80
51801;DHT22;37855;53.204;6.568;2023-03-23T03:15:47;10.90;79.60
51801;DHT22;37855;53.204;6.568;2023-03-23T03:18:26;11.00;79.50
51801;DHT22;37855;53.204;6.568;2023-03-23T03:21:02;10.90;79.50
51801;DHT22;37855;53.204;6.568;2023-03-23T03:23:29;10.90;79.30
51801;DHT22;37855;53.204;6.568;2023-03-23T03:25:56;10.90;79.30
51801;DHT22;37855;53.204;6.568;2023-03-23T03:28:23;10.90;79.40
51801;DHT22;37855;53.204;6.568;2023-03-23T03:30:57;10.90;79.40
51801;DHT22;37855;53.204;6.568;2023-03-23T03:33:28;10.90;79.30
51801;DHT22;37855;53.204;6.568;2023-03-23T03:35:57;10.90;79.30
51801;DHT22;37855;53.204;6.568;2023-03-23T03:38:25;10.90;79.30
51801;DHT22;37855;53.204;6.568;2023-03-23T03:40:51;10.90;79.10
51801;DHT22;37855;53.204;6.568;2023-03-23T03:43:17;10.90;79.10
51801;DHT22;37855;53.204;6.568;2023-03-23T03:45:43;10.90;79.10
51801;DHT22;37855;53.204;6.568;2023-03-23T03:48:09;10.90;79.10
51801;DHT22;37855;53.204;6.568;2023-03-23T03:50:35;10.90;79.10
51801;DHT22;37855;53.204;6.568;2023-03-23T03:53:01;10.90;79.10
51801;DHT22;37855;53.204;6.568;2023-03-23T03:55:27;10.90;79.00
51801;DHT22;37855;53.204;6.568;2023-03-23T03:57:54;11.00;79.00
51801;DHT22;37855;53.204;6.568;2023-03-23T04:00:20;11.00;79.00
51801;DHT22;37855;53.204;6.568;2023-03-23T04:02:49;11.00;79.10
51801;DHT22;37855;53.204;6.568;2023-03-23T04:05:19;10.90;79.30
51801;DHT22;37855;53.204;6.568;2023-03-23T04:07:46;10.90;79.30
51801;DHT22;37855;53.204;6.568;2023-03-23T04:10:15;10.90;79.40
51801;DHT22;37855;53.204;6.568;2023-03-23T04:12:40;10.80;79.20
51801;DHT22;37855;53.204;6.568;2023-03-23T04:15:07;10.80;79.30
51801;DHT22;37855;53.204;6.568;2023-03-23T04:17:34;10.80;79.30
51801;DHT22;37855;53.204;6.568;2023-03-23T04:19:59;10.70;79.20
51801;DHT22;37855;53.204;6.568;2023-03-23T04:22:28;10.70;78.70
51801;DHT22;37855;53.204;6.568;2023-03-23T04:25:00;10.60;78.30
51801;DHT22;37855;53.204;6.568;2023-03-23T04:27:28;10.50;78.40
51801;DHT22;37855;53.204;6.568;2023-03-23T04:29:55;10.40;78.40
51801;DHT22;37855;53.204;6.568;2023-03-23T04:32:23;10.40;78.50
51801;DHT22;37855;53.204;6.568;2023-03-23T04:34:50;10.30;78.70
51801;DHT22;37855;53.204;6.568;2023-03-23T04:37:16;10.30;79.00
51801;DHT22;37855;53.204;6.568;2023-03-23T04:39:41;10.30;79.40
51801;DHT22;37855;53.204;6.568;2023-03-23T04:42:10;10.20;78.70
51801;DHT22;37855;53.204;6.568;2023-03-23T04:44:36;10.20;78.30
51801;DHT22;37855;53.204;6.568;2023-03-23T04:47:05;10.20;78.40
51801;DHT22;37855;53.204;6.568;2023-03-23T04:49:34;10.10;78.70
51801;DHT22;37855;53.204;6.568;2023-03-23T04:52:01;10.10;78.90
51801;DHT22;37855;53.204;6.568;2023-03-23T04:54:27;10.10;78.90
51801;DHT22;37855;53.204;6.568;2023-03-23T04:56:54;10.10;78.80
51801;DHT22;37855;53.204;6.568;2023-03-23T04:59:20;10.10;79.00
51801;DHT22;37855;53.204;6.568;2023-03-23T05:01:46;10.00;78.80
51801;DHT22;37855;53.204;6.568;2023-03-23T05:04:12;10.00;78.70
51801;DHT22;37855;53.204;6.568;2023-03-23T05:06:41;10.00;78.70
51801;DHT22;37855;53.204;6.568;2023-03-23T05:09:10;10.00;78.70
51801;DHT22;37855;53.204;6.568;2023-03-23T05:11:36;10.00;78.80
51801;DHT22;37855;53.204;6.568;2023-03-23T05:14:03;10.00;78.80
51801;DHT22;37855;53.204;6.568;2023-03-23T05:16:33;10.10;78.80
51801;DHT22;37855;53.204;6.568;2023-03-23T05:19:02;10.10;78.90
51801;DHT22;37855;53.204;6.568;2023-03-23T05:21:27;10.10;79.00
51801;DHT22;37855;53.204;6.568;2023-03-23T05:23:54;10.10;79.10
51801;DHT22;37855;53.204;6.568;2023-03-23T05:26:21;10.10;79.30
51801;DHT22;37855;53.204;6.568;2023-03-23T05:28:47;10.20;79.50
51801;DHT22;37855;53.204;6.568;2023-03-23T05:31:15;10.30;79.60
51801;DHT22;37855;53.204;6.568;2023-03-23T05:33:40;10.30;79.90
51801;DHT22;37855;53.204;6.568;2023-03-23T05:36:06;10.30;79.90
51801;DHT22;37855;53.204;6.568;2023-03-23T05:38:36;10.30;79.90
51801;DHT22;37855;53.204;6.568;2023-03-23T05:41:04;10.30;80.00
51801;DHT22;37855;53.204;6.568;2023-03-23T05:43:29;10.40;79.90
51801;DHT22;37855;53.204;6.568;2023-03-23T05:45:55;10.40;79.70
51801;DHT22;37855;53.204;6.568;2023-03-23T05:48:21;10.40;79.60
51801;DHT22;37855;53.204;6.568;2023-03-23T05:50:47;10.40;79.60
51801;DHT22;37855;53.204;6.568;2023-03-23T05:53:13;10.40;79.30
51801;DHT22;37855;53.204;6.568;2023-03-23T05:55:38;10.40;79.30
51801;DHT22;37855;53.204;6.568;2023-03-23T05:58:05;10.30;79.30
51801;DHT22;37855;53.204;6.568;2023-03-23T06:00:30;10.30;79.30
51801;DHT22;37855;53.204;6.568;2023-03-23T06:02:58;10.30;79.10
51801;DHT22;37855;53.204;6.568;2023-03-23T06:05:24;10.30;79.00
51801;DHT22;37855;53.204;6.568;2023-03-23T06:07:51;10.30;78.80
51801;DHT22;37855;53.204;6.568;2023-03-23T06:10:17;10.40;78.60
51801;DHT22;37855;53.204;6.568;2023-03-23T06:15:13;10.30;78.30
51801;DHT22;37855;53.204;6.568;2023-03-23T06:17:40;10.40;78.30
51801;DHT22;37855;53.204;6.568;2023-03-23T06:25:17;10.40;77.90
51801;DHT22;37855;53.204;6.568;2023-03-23T06:27:44;10.40;78.00
51801;DHT22;37855;53.204;6.568;2023-03-23T06:30:12;10.40;77.70
51801;DHT22;37855;53.204;6.568;2023-03-23T06:32:44;10.40;77.70
51801;DHT22;37855;53.204;6.568;2023-03-23T06:35:15;10.40;77.60
51801;DHT22;37855;53.204;6.568;2023-03-23T06:37:41;10.40;77.60
51801;DHT22;37855;53.204;6.568;2023-03-23T06:40:08;10.40;77.60
51801;DHT22;37855;53.204;6.568;2023-03-23T06:42:35;10.40;77.60
51801;DHT22;37855;53.204;6.568;2023-03-23T06:57:58;10.20;73.90
51801;DHT22;37855;53.204;6.568;2023-03-23T07:00:27;10.20;73.90
51801;DHT22;37855;53.204;6.568;2023-03-23T07:03:08;10.20;73.90
51801;DHT22;37855;53.204;6.568;2023-03-23T07:09:56;10.10;73.30
51801;DHT22;37855;53.204;6.568;2023-03-23T07:12:23;10.10;72.80
51801;DHT22;37855;53.204;6.568;2023-03-23T07:15:05;10.00;73.20
51801;DHT22;37855;53.204;6.568;2023-03-23T07:17:30;10.10;73.70
51801;DHT22;37855;53.204;6.568;2023-03-23T07:22:33;10.10;74.30
51801;DHT22;37855;53.204;6.568;2023-03-23T08:19:12;11.10;73.90
51801;DHT22;37855;53.204;6.568;2023-03-23T08:21:37;11.10;74.10
51801;DHT22;37855;53.204;6.568;2023-03-23T08:24:03;11.10;73.90
51801;DHT22;37855;53.204;6.568;2023-03-23T08:26:30;11.10;73.80
51801;DHT22;37855;53.204;6.568;2023-03-23T08:28:56;11.10;73.80
51801;DHT22;37855;53.204;6.568;2023-03-23T08:31:29;11.10;73.80
51801;DHT22;37855;53.204;6.568;2023-03-23T08:33:54;11.10;73.60
51801;DHT22;37855;53.204;6.568;2023-03-23T08:36:23;11.10;73.30
51801;DHT22;37855;53.204;6.568;2023-03-23T08:38:52;11.10;73.40
51801;DHT22;37855;53.204;6.568;2023-03-23T08:41:18;11.10;73.40
51801;DHT22;37855;53.204;6.568;2023-03-23T08:43:43;11.10;73.40
51801;DHT22;37855;53.204;6.568;2023-03-23T08:46:13;11.20;73.50
51801;DHT22;37855;53.204;6.568;2023-03-23T08:48:38;11.30;73.30
51801;DHT22;37855;53.204;6.568;2023-03-23T08:53:40;11.40;72.70
51801;DHT22;37855;53.204;6.568;2023-03-23T08:56:07;11.40;72.30
51801;DHT22;37855;53.204;6.568;2023-03-23T09:01:36;11.60;72.50
51801;DHT22;37855;53.204;6.568;2023-03-23T09:04:01;11.60;71.90
51801;DHT22;37855;53.204;6.568;2023-03-23T09:10:32;11.70;71.80
51801;DHT22;37855;53.204;6.568;2023-03-23T09:19:53;11.80;71.20
51801;DHT22;37855;53.204;6.568;2023-03-23T09:22:20;11.80;70.10
51801;DHT22;37855;53.204;6.568;2023-03-23T09:24:49;11.90;70.20
51801;DHT22;37855;53.204;6.568;2023-03-23T09:27:15;11.90;69.80
51801;DHT22;37855;53.204;6.568;2023-03-23T09:29:41;11.90;70.00
51801;DHT22;37855;53.204;6.568;2023-03-23T09:32:07;12.00;69.80
51801;DHT22;37855;53.204;6.568;2023-03-23T09:38:19;12.10;69.00
51801;DHT22;37855;53.204;6.568;2023-03-23T10:01:48;12.40;67.10
51801;DHT22;37855;53.204;6.568;2023-03-23T10:04:51;12.30;66.00
51801;DHT22;37855;53.204;6.568;2023-03-23T10:07:25;12.20;64.70
51801;DHT22;37855;53.204;6.568;2023-03-23T10:10:00;12.10;64.40
51801;DHT22;37855;53.204;6.568;2023-03-23T10:12:55;12.10;64.10
51801;DHT22;37855;53.204;6.568;2023-03-23T10:15:36;12.00;64.80
51801;DHT22;37855;53.204;6.568;2023-03-23T10:18:22;11.90;64.30
51801;DHT22;37855;53.204;6.568;2023-03-23T10:24:59;11.90;64.40
51801;DHT22;37855;53.204;6.568;2023-03-23T10:43:19;11.70;64.40
51801;DHT22;37855;53.204;6.568;2023-03-23T10:48:37;11.90;64.70
51801;DHT22;37855;53.204;6.568;2023-03-23T10:51:10;12.00;65.10
51801;DHT22;37855;53.204;6.568;2023-03-23T10:53:51;12.10;65.10
51801;DHT22;37855;53.204;6.568;2023-03-23T10:56:38;12.30;64.70
51801;DHT22;37855;53.204;6.568;2023-03-23T10:59:31;12.40;64.20
51801;DHT22;37855;53.204;6.568;2023-03-23T11:02:14;12.50;64.80
51801;DHT22;37855;53.204;6.568;2023-03-23T11:04:55;12.80;64.10
51801;DHT22;37855;53.204;6.568;2023-03-23T11:07:27;13.00;63.80
51801;DHT22;37855;53.204;6.568;2023-03-23T11:09:56;13.10;63.60
51801;DHT22;37855;53.204;6.568;2023-03-23T11:12:24;13.20;63.30
51801;DHT22;37855;53.204;6.568;2023-03-23T11:14:50;13.30;62.80
51801;DHT22;37855;53.204;6.568;2023-03-23T11:17:25;13.40;62.40
51801;DHT22;37855;53.204;6.568;2023-03-23T11:19:54;13.50;61.40
51801;DHT22;37855;53.204;6.568;2023-03-23T11:22:28;13.50;61.90
51801;DHT22;37855;53.204;6.568;2023-03-23T11:24:55;13.60;61.80
51801;DHT22;37855;53.204;6.568;2023-03-23T11:27:23;13.50;61.60
51801;DHT22;37855;53.204;6.568;2023-03-23T11:30:25;13.50;61.70
51801;DHT22;37855;53.204;6.568;2023-03-23T11:32:53;13.50;61.90
51801;DHT22;37855;53.204;6.568;2023-03-23T11:35:25;13.60;61.70
51801;DHT22;37855;53.204;6.568;2023-03-23T11:37:59;13.70;61.00
51801;DHT22;37855;53.204;6.568;2023-03-23T11:40:30;13.90;60.90
51801;DHT22;37855;53.204;6.568;2023-03-23T11:45:38;14.00;59.20
51801;DHT22;37855;53.204;6.568;2023-03-23T11:51:29;13.90;59.20
51801;DHT22;37855;53.204;6.568;2023-03-23T11:54:07;14.00;58.40
51801;DHT22;37855;53.204;6.568;2023-03-23T11:56:42;14.00;58.80
51801;DHT22;37855;53.204;6.568;2023-03-23T11:59:26;14.10;58.60
51801;DHT22;37855;53.204;6.568;2023-03-23T12:04:57;14.00;58.60
51801;DHT22;37855;53.204;6.568;2023-03-23T12:13:45;14.20;57.30
51801;DHT22;37855;53.204;6.568;2023-03-23T12:33:41;14.10;55.70
51801;DHT22;37855;53.204;6.568;2023-03-23T12:36:34;14.10;56.10
51801;DHT22;37855;53.204;6.568;2023-03-23T12:42:03;13.90;56.00
51801;DHT22;37855;53.204;6.568;2023-03-23T12:50:31;14.00;56.10
51801;DHT22;37855;53.204;6.568;2023-03-23T12:53:22;14.10;55.70
51801;DHT22;37855;53.204;6.568;2023-03-23T12:58:48;14.10;55.40
51801;DHT22;37855;53.204;6.568;2023-03-23T13:01:20;14.10;55.30
51801;DHT22;37855;53.204;6.568;2023-03-23T13:04:17;14.10;55.80
51801;DHT22;37855;53.204;6.568;2023-03-23T13:06:46;14.20;55.40
51801;DHT22;37855;53.204;6.568;2023-03-23T13:12:48;14.20;56.40
51801;DHT22;37855;53.204;6.568;2023-03-23T13:15:43;14.30;55.90
51801;DHT22;37855;53.204;6.568;2023-03-23T13:21:19;14.40;55.60
51801;DHT22;37855;53.204;6.568;2023-03-23T13:23:53;14.40;56.30
51801;DHT22;37855;53.204;6.568;2023-03-23T13:26:22;14.40;57.10
51801;DHT22;37855;53.204;6.568;2023-03-23T13:29:15;14.30;57.30
51801;DHT22;37855;53.204;6.568;2023-03-23T13:31:45;14.30;57.20
51801;DHT22;37855;53.204;6.568;2023-03-23T13:34:29;14.20;57.50
51801;DHT22;37855;53.204;6.568;2023-03-23T13:47:26;14.10;59.90
51801;DHT22;37855;53.204;6.568;2023-03-23T13:50:28;14.10;59.80
51801;DHT22;37855;53.204;6.568;2023-03-23T13:53:00;14.00;59.70
51801;DHT22;37855;53.204;6.568;2023-03-23T13:55:42;14.00;59.60
51801;DHT22;37855;53.204;6.568;2023-03-23T14:01:31;14.00;58.80
51801;DHT22;37855;53.204;6.568;2023-03-23T14:03:59;14.20;58.60
51801;DHT22;37855;53.204;6.568;2023-03-23T14:06:39;14.20;58.50
51801;DHT22;37855;53.204;6.568;2023-03-23T14:09:21;14.30;58.30
51801;DHT22;37855;53.204;6.568;2023-03-23T14:14:40;14.60;57.20
51801;DHT22;37855;53.204;6.568;2023-03-23T14:17:40;14.60;57.00
51801;DHT22;37855;53.204;6.568;2023-03-23T14:20:36;14.70;57.60
51801;DHT22;37855;53.204;6.568;2023-03-23T14:23:12;14.80;58.00
51801;DHT22;37855;53.204;6.568;2023-03-23T14:25:39;14.80;57.40
51801;DHT22;37855;53.204;6.568;2023-03-23T14:28:17;14.90;57.60
51801;DHT22;37855;53.204;6.568;2023-03-23T14:51:25;14.90;57.00
51801;DHT22;37855;53.204;6.568;2023-03-23T15:03:14;14.50;57.20
51801;DHT22;37855;53.204;6.568;2023-03-23T15:06:20;14.50;57.90
51801;DHT22;37855;53.204;6.568;2023-03-23T15:09:05;14.50;57.70
51801;DHT22;37855;53.204;6.568;2023-03-23T15:22:27;14.50;57.60
51801;DHT22;37855;53.204;6.568;2023-03-23T15:27:58;14.40;57.10
51801;DHT22;37855;53.204;6.568;2023-03-23T15:33:03;14.30;57.10
51801;DHT22;37855;53.204;6.568;2023-03-23T15:35:36;14.30;57.10
51801;DHT22;37855;53.204;6.568;2023-03-23T15:38:04;14.30;56.40
51801;DHT22;37855;53.204;6.568;2023-03-23T15:40:36;14.30;55.80
51801;DHT22;37855;53.204;6.568;2023-03-23T16:18:21;13.70;59.10
51801;DHT22;37855;53.204;6.568;2023-03-23T16:20:49;13.70;59.20
51801;DHT22;37855;53.204;6.568;2023-03-23T16:23:15;13.70;59.60
51801;DHT22;37855;53.204;6.568;2023-03-23T16:25:41;13.60;59.70
51801;DHT22;37855;53.204;6.568;2023-03-23T16:28:13;13.60;60.10
51801;DHT22;37855;53.204;6.568;2023-03-23T16:30:40;13.60;60.20
51801;DHT22;37855;53.204;6.568;2023-03-23T16:33:10;13.60;60.60
51801;DHT22;37855;53.204;6.568;2023-03-23T16:35:37;13.60;60.50
51801;DHT22;37855;53.204;6.568;2023-03-23T16:38:04;13.60;60.90
51801;DHT22;37855;53.204;6.568;2023-03-23T16:40:31;13.60;61.10
51801;DHT22;37855;53.204;6.568;2023-03-23T16:42:58;13.60;61.30
51801;DHT22;37855;53.204;6.568;2023-03-23T16:48:54;13.60;61.50
51801;DHT22;37855;53.204;6.568;2023-03-23T16:51:20;13.50;61.70
51801;DHT22;37855;53.204;6.568;2023-03-23T16:57:47;13.40;61.90
51801;DHT22;37855;53.204;6.568;2023-03-23T17:00:40;13.40;62.10
51801;DHT22;37855;53.204;6.568;2023-03-23T17:03:06;13.30;62.10
51801;DHT22;37855;53.204;6.568;2023-03-23T17:05:38;13.30;62.20
51801;DHT22;37855;53.204;6.568;2023-03-23T17:08:04;13.20;62.40
51801;DHT22;37855;53.204;6.568;2023-03-23T17:10:31;13.20;62.30
51801;DHT22;37855;53.204;6.568;2023-03-23T17:12:58;13.10;62.20
51801;DHT22;37855;53.204;6.568;2023-03-23T17:15:24;13.10;62.40
51801;DHT22;37855;53.204;6.568;2023-03-23T17:17:50;13.10;62.60
51801;DHT22;37855;53.204;6.568;2023-03-23T17:20:17;13.10;62.60
51801;DHT22;37855;53.204;6.568;2023-03-23T17:22:43;13.00;62.70
51801;DHT22;37855;53.204;6.568;2023-03-23T17:25:09;13.00;62.70
51801;DHT22;37855;53.204;6.568;2023-03-23T17:27:39;13.00;62.70
51801;DHT22;37855;53.204;6.568;2023-03-23T17:30:06;12.90;62.90
51801;DHT22;37855;53.204;6.568;2023-03-23T17:32:33;12.90;63.00
51801;DHT22;37855;53.204;6.568;2023-03-23T17:34:58;12.90;63.10
51801;DHT22;37855;53.204;6.568;2023-03-23T17:37:24;12.90;63.00
51801;DHT22;37855;53.204;6.568;2023-03-23T17:39:53;12.80;63.20
51801;DHT22;37855;53.204;6.568;2023-03-23T17:42:19;12.80;63.30
51801;DHT22;37855;53.204;6.568;2023-03-23T17:44:44;12.70;63.50
51801;DHT22;37855;53.204;6.568;2023-03-23T17:47:11;12.70;63.50
51801;DHT22;37855;53.204;6.568;2023-03-23T17:55:49;12.60;63.80
51801;DHT22;37855;53.204;6.568;2023-03-23T17:58:14;12.60;63.80
51801;DHT22;37855;53.204;6.568;2023-03-23T18:00:45;12.50;63.90
51801;DHT22;37855;53.204;6.568;2023-03-23T18:10:12;12.40;64.40
51801;DHT22;37855;53.204;6.568;2023-03-23T18:22:25;12.30;65.00
51801;DHT22;37855;53.204;6.568;2023-03-23T18:24:51;12.20;65.20
51801;DHT22;37855;53.204;6.568;2023-03-23T18:27:18;12.20;65.30
51801;DHT22;37855;53.204;6.568;2023-03-23T18:29:45;12.20;65.40
51801;DHT22;37855;53.204;6.568;2023-03-23T18:32:10;12.20;65.50
51801;DHT22;37855;53.204;6.568;2023-03-23T18:34:40;12.20;65.60
51801;DHT22;37855;53.204;6.568;2023-03-23T18:37:19;12.20;65.70
51801;DHT22;37855;53.204;6.568;2023-03-23T18:39:45;12.20;65.80
51801;DHT22;37855;53.204;6.568;2023-03-23T18:42:11;12.20;65.90
51801;DHT22;37855;53.204;6.568;2023-03-23T18:44:37;12.20;66.00
51801;DHT22;37855;53.204;6.568;2023-03-23T18:47:03;12.20;66.10
51801;DHT22;37855;53.204;6.568;2023-03-23T18:49:45;12.10;66.20
51801;DHT22;37855;53.204;6.568;2023-03-23T18:52:17;12.10;66.20
51801;DHT22;37855;53.204;6.568;2023-03-23T18:54:47;12.10;66.40
51801;DHT22;37855;53.204;6.568;2023-03-23T18:57:15;12.00;66.60
51801;DHT22;37855;53.204;6.568;2023-03-23T18:59:45;12.00;66.60
51801;DHT22;37855;53.204;6.568;2023-03-23T19:02:13;12.00;66.80
51801;DHT22;37855;53.204;6.568;2023-03-23T19:04:40;12.00;66.90
51801;DHT22;37855;53.204;6.568;2023-03-23T19:07:15;11.90;67.10
51801;DHT22;37855;53.204;6.568;2023-03-23T19:09:47;11.90;67.10
51801;DHT22;37855;53.204;6.568;2023-03-23T19:12:13;11.90;67.30
51801;DHT22;37855;53.204;6.568;2023-03-23T19:14:40;11.90;67.50
51801;DHT22;37855;53.204;6.568;2023-03-23T19:17:06;11.90;67.60
51801;DHT22;37855;53.204;6.568;2023-03-23T19:19:35;12.00;67.70
51801;DHT22;37855;53.204;6.568;2023-03-23T19:22:02;11.90;68.00
51801;DHT22;37855;53.204;6.568;2023-03-23T19:24:28;11.90;68.00
51801;DHT22;37855;53.204;6.568;2023-03-23T19:26:55;12.00;68.30
51801;DHT22;37855;53.204;6.568;2023-03-23T19:32:46;12.00;68.50
51801;DHT22;37855;53.204;6.568;2023-03-23T19:35:52;12.00;68.60
51801;DHT22;37855;53.204;6.568;2023-03-23T19:38:39;12.00;68.80
51801;DHT22;37855;53.204;6.568;2023-03-23T19:41:05;12.00;68.80
51801;DHT22;37855;53.204;6.568;2023-03-23T19:43:31;12.00;68.90
51801;DHT22;37855;53.204;6.568;2023-03-23T19:45:57;12.10;69.10
51801;DHT22;37855;53.204;6.568;2023-03-23T19:50:50;12.10;69.40
51801;DHT22;37855;53.204;6.568;2023-03-23T19:53:20;12.10;69.50
51801;DHT22;37855;53.204;6.568;2023-03-23T19:55:46;12.10;69.90
51801;DHT22;37855;53.204;6.568;2023-03-23T19:58:13;12.10;70.40
51801;DHT22;37855;53.204;6.568;2023-03-23T20:00:38;12.10;70.10
51801;DHT22;37855;53.204;6.568;2023-03-23T20:03:05;12.10;70.30
51801;DHT22;37855;53.204;6.568;2023-03-23T20:05:33;12.10;70.30
51801;DHT22;37855;53.204;6.568;2023-03-23T20:11:55;12.20;70.80
51801;DHT22;37855;53.204;6.568;2023-03-23T20:14:23;12.20;70.80
51801;DHT22;37855;53.204;6.568;2023-03-23T20:16:50;12.20;70.90
51801;DHT22;37855;53.204;6.568;2023-03-23T20:19:16;12.20;71.00
51801;DHT22;37855;53.204;6.568;2023-03-23T20:21:42;12.20;71.20
51801;DHT22;37855;53.204;6.568;2023-03-23T20:24:07;12.20;71.30
51801;DHT22;37855;53.204;6.568;2023-03-23T20:26:37;12.20;71.40
51801;DHT22;37855;53.204;6.568;2023-03-23T20:29:03;12.20;71.60
51801;DHT22;37855;53.204;6.568;2023-03-23T20:31:32;12.20;71.80
51801;DHT22;37855;53.204;6.568;2023-03-23T20:34:06;12.20;71.90
51801;DHT22;37855;53.204;6.568;2023-03-23T20:36:41;12.10;72.20
51801;DHT22;37855;53.204;6.568;2023-03-23T20:39:14;12.10;72.60
51801;DHT22;37855;53.204;6.568;2023-03-23T20:41:41;12.10;72.50
51801;DHT22;37855;53.204;6.568;2023-03-23T20:44:10;12.10;72.70
51801;DHT22;37855;53.204;6.568;2023-03-23T20:49:40;12.10;73.10
51801;DHT22;37855;53.204;6.568;2023-03-23T20:52:07;12.10;73.30
51801;DHT22;37855;53.204;6.568;2023-03-23T20:57:11;12.00;74.30
51801;DHT22;37855;53.204;6.568;2023-03-23T20:59:40;12.00;74.00
51801;DHT22;37855;53.204;6.568;2023-03-23T21:02:09;12.10;74.20
51801;DHT22;37855;53.204;6.568;2023-03-23T21:04:57;12.00;74.30
51801;DHT22;37855;53.204;6.568;2023-03-23T21:07:31;12.00;75.10
51801;DHT22;37855;53.204;6.568;2023-03-23T21:09:57;12.00;74.60
51801;DHT22;37855;53.204;6.568;2023-03-23T21:12:24;12.00;74.50
51801;DHT22;37855;53.204;6.568;2023-03-23T21:14:51;11.90;74.60
51801;DHT22;37855;53.204;6.568;2023-03-23T21:17:18;11.90;74.50
51801;DHT22;37855;53.204;6.568;2023-03-23T21:20:10;11.90;74.60
51801;DHT22;37855;53.204;6.568;2023-03-23T21:22:36;11.90;74.80
51801;DHT22;37855;53.204;6.568;2023-03-23T21:25:04;11.80;74.80
51801;DHT22;37855;53.204;6.568;2023-03-23T21:27:32;11.80;74.90
51801;DHT22;37855;53.204;6.568;2023-03-23T21:30:01;11.80;75.00
51801;DHT22;37855;53.204;6.568;2023-03-23T21:32:27;11.80;75.00
51801;DHT22;37855;53.204;6.568;2023-03-23T21:34:56;11.80;75.20
51801;DHT22;37855;53.204;6.568;2023-03-23T21:37:30;11.80;75.40
51801;DHT22;37855;53.204;6.568;2023-03-23T21:40:03;11.80;75.60
51801;DHT22;37855;53.204;6.568;2023-03-23T21:45:10;11.70;75.80
51801;DHT22;37855;53.204;6.568;2023-03-23T21:47:40;11.70;76.20